sensor_id;sensor_type;location;lat;lon;timestamp;temperature;humidity
20973;DHT22;10645;52.370;13.314;2023-02-25T00:00:05;4.00;99.90
20973;DHT22;10645;52.370;13.314;2023-02-25T00:02:47;4.00;99.90
20973;DHT22;10645;52.370;13.314;2023-02-25T00:05:18;4.00;99.90
20973;DHT22;10645;52.370;13.314;2023-02-25T00:07:44;3.90;99.90
20973;DHT22;10645;52.370;13.314;2023-02-25T00:10:12;3.90;99.90
20973;DHT22;10645;52.370;13.314;2023-02-25T00:12:39;3.80;99.90
20973;DHT22;10645;52.370;13.314;2023-02-25T00:15:06;3.80;99.90
20973;DHT22;10645;52.370;13.314;2023-02-25T00:17:32;3.80;99.90
20973;DHT22;10645;52.370;13.314;2023-02-25T00:19:59;3.80;99.90
20973;DHT22;10645;52.370;13.314;2023-02-25T00:22:26;3.80;99.90
20973;DHT22;10645;52.370;13.314;2023-02-25T00:24:54;3.80;99.90
20973;DHT22;10645;52.370;13.314;2023-02-25T00:27:21;3.80;99.90
20973;DHT22;10645;52.370;13.314;2023-02-25T00:29:50;3.80;99.90
20973;DHT22;10645;52.370;13.314;2023-02-25T00:32:16;3.80;99.90
20973;DHT22;10645;52.370;13.314;2023-02-25T00:34:43;3.80;99.90
20973;DHT22;10645;52.370;13.314;2023-02-25T00:37:09;3.80;99.90
20973;DHT22;10645;52.370;13.314;2023-02-25T00:39:35;3.80;99.90
20973;DHT22;10645;52.370;13.314;2023-02-25T00:42:11;3.80;99.90
20973;DHT22;10645;52.370;13.314;2023-02-25T00:44:38;3.70;99.90
20973;DHT22;10645;52.370;13.314;2023-02-25T00:47:04;3.80;99.90
20973;DHT22;10645;52.370;13.314;2023-02-25T00:49:31;3.80;99.90
20973;DHT22;10645;52.370;13.314;2023-02-25T00:51:58;3.70;99.90
20973;DHT22;10645;52.370;13.314;2023-02-25T00:54:24;3.70;99.90
20973;DHT22;10645;52.370;13.314;2023-02-25T00:56:50;3.70;99.90
20973;DHT22;10645;52.370;13.314;2023-02-25T00:59:16;3.60;99.90
20973;DHT22;10645;52.370;13.314;2023-02-25T01:01:43;3.40;99.90
20973;DHT22;10645;52.370;13.314;2023-02-25T01:04:09;3.30;99.90
20973;DHT22;10645;52.370;13.314;2023-02-25T01:06:37;3.20;99.90
20973;DHT22;10645;52.370;13.314;2023-02-25T01:09:05;3.20;99.90
20973;DHT22;10645;52.370;13.314;2023-02-25T01:11:34;3.20;99.90
20973;DHT22;10645;52.370;13.314;2023-02-25T01:14:04;3.30;99.90
20973;DHT22;10645;52.370;13.314;2023-02-25T01:16:32;3.30;99.90
20973;DHT22;10645;52.370;13.314;2023-02-25T01:19:01;3.40;99.90
20973;DHT22;10645;52.370;13.314;2023-02-25T01:21:31;3.40;99.90
20973;DHT22;10645;52.370;13.314;2023-02-25T01:24:01;3.40;99.90
20973;DHT22;10645;52.370;13.314;2023-02-25T01:26:30;3.40;99.90
20973;DHT22;10645;52.370;13.314;2023-02-25T01:28:57;3.40;99.90
20973;DHT22;10645;52.370;13.314;2023-02-25T01:31:25;3.40;99.90
20973;DHT22;10645;52.370;13.314;2023-02-25T01:33:58;3.40;99.90
20973;DHT22;10645;52.370;13.314;2023-02-25T01:36:26;3.40;99.90
20973;DHT22;10645;52.370;13.314;2023-02-25T01:38:52;3.30;99.90
20973;DHT22;10645;52.370;13.314;2023-02-25T01:41:18;3.30;99.90
20973;DHT22;10645;52.370;13.314;2023-02-25T01:44:12;3.30;99.90
20973;DHT22;10645;52.370;13.314;2023-02-25T01:46:40;3.30;99.90
20973;DHT22;10645;52.370;13.314;2023-02-25T01:49:36;3.30;99.90
20973;DHT22;10645;52.370;13.314;2023-02-25T01:52:10;3.30;99.90
20973;DHT22;10645;52.370;13.314;2023-02-25T01:54:38;3.30;99.90
20973;DHT22;10645;52.370;13.314;2023-02-25T01:57:09;3.30;99.90
20973;DHT22;10645;52.370;13.314;2023-02-25T01:59:37;3.30;99.90
20973;DHT22;10645;52.370;13.314;2023-02-25T02:02:04;3.30;99.90
20973;DHT22;10645;52.370;13.314;2023-02-25T02:04:32;3.30;99.90
20973;DHT22;10645;52.370;13.314;2023-02-25T02:06:58;3.40;99.90
20973;DHT22;10645;52.370;13.314;2023-02-25T02:09:27;3.40;99.90
20973;DHT22;10645;52.370;13.314;2023-02-25T02:11:59;3.40;99.90
20973;DHT22;10645;52.370;13.314;2023-02-25T02:14:30;3.40;99.90
20973;DHT22;10645;52.370;13.314;2023-02-25T02:22:42;3.40;99.90
20973;DHT22;10645;52.370;13.314;2023-02-25T02:31:12;3.50;99.90
20973;DHT22;10645;52.370;13.314;2023-02-25T02:34:08;3.50;99.90
20973;DHT22;10645;52.370;13.314;2023-02-25T02:39:59;3.50;99.90
20973;DHT22;10645;52.370;13.314;2023-02-25T02:48:36;3.50;99.90
20973;DHT22;10645;52.370;13.314;2023-02-25T02:51:10;3.40;99.90
20973;DHT22;10645;52.370;13.314;2023-02-25T02:53:46;3.50;99.90
20973;DHT22;10645;52.370;13.314;2023-02-25T02:56:18;3.50;99.90
20973;DHT22;10645;52.370;13.314;2023-02-25T02:59:06;3.50;99.90
20973;DHT22;10645;52.370;13.314;2023-02-25T03:01:47;3.50;99.90
20973;DHT22;10645;52.370;13.314;2023-02-25T03:04:23;3.50;99.90
20973;DHT22;10645;52.370;13.314;2023-02-25T03:06:58;3.50;99.90
20973;DHT22;10645;52.370;13.314;2023-02-25T03:09:35;3.50;99.90
20973;DHT22;10645;52.370;13.314;2023-02-25T03:12:01;3.50;99.90
20973;DHT22;10645;52.370;13.314;2023-02-25T03:14:30;3.50;99.90
20973;DHT22;10645;52.370;13.314;2023-02-25T03:17:21;3.50;99.90
20973;DHT22;10645;52.370;13.314;2023-02-25T03:20:02;3.50;99.90
20973;DHT22;10645;52.370;13.314;2023-02-25T03:22:34;3.50;99.90
20973;DHT22;10645;52.370;13.314;2023-02-25T03:25:20;3.40;99.90
20973;DHT22;10645;52.370;13.314;2023-02-25T03:27:54;3.40;99.90
20973;DHT22;10645;52.370;13.314;2023-02-25T03:30:30;3.40;99.90
20973;DHT22;10645;52.370;13.314;2023-02-25T03:33:18;3.40;99.90
20973;DHT22;10645;52.370;13.314;2023-02-25T03:35:47;3.40;99.90
20973;DHT22;10645;52.370;13.314;2023-02-25T03:38:18;3.40;99.90
20973;DHT22;10645;52.370;13.314;2023-02-25T03:40:47;3.40;99.90
20973;DHT22;10645;52.370;13.314;2023-02-25T03:43:22;3.40;99.90
20973;DHT22;10645;52.370;13.314;2023-02-25T03:45:50;3.40;99.90
20973;DHT22;10645;52.370;13.314;2023-02-25T03:48:17;3.40;99.90
20973;DHT22;10645;52.370;13.314;2023-02-25T03:50:48;3.30;99.90
20973;DHT22;10645;52.370;13.314;2023-02-25T03:53:16;3.30;99.90
20973;DHT22;10645;52.370;13.314;2023-02-25T03:55:49;3.20;99.90
20973;DHT22;10645;52.370;13.314;2023-02-25T03:58:15;3.20;99.90
20973;DHT22;10645;52.370;13.314;2023-02-25T04:00:43;3.20;99.90
20973;DHT22;10645;52.370;13.314;2023-02-25T04:03:10;3.20;99.90
20973;DHT22;10645;52.370;13.314;2023-02-25T04:05:37;3.10;99.90
20973;DHT22;10645;52.370;13.314;2023-02-25T04:08:04;3.10;99.90
20973;DHT22;10645;52.370;13.314;2023-02-25T04:10:41;3.10;99.90
20973;DHT22;10645;52.370;13.314;2023-02-25T04:13:13;3.00;99.90
20973;DHT22;10645;52.370;13.314;2023-02-25T04:15:40;3.00;99.90
20973;DHT22;10645;52.370;13.314;2023-02-25T04:18:07;2.90;99.90
20973;DHT22;10645;52.370;13.314;2023-02-25T04:20:34;2.90;99.90
20973;DHT22;10645;52.370;13.314;2023-02-25T04:23:01;2.90;99.90
20973;DHT22;10645;52.370;13.314;2023-02-25T04:25:27;2.90;99.90
20973;DHT22;10645;52.370;13.314;2023-02-25T04:27:53;2.90;99.90
20973;DHT22;10645;52.370;13.314;2023-02-25T04:30:19;2.90;99.90
20973;DHT22;10645;52.370;13.314;2023-02-25T04:32:46;2.80;99.90
20973;DHT22;10645;52.370;13.314;2023-02-25T04:35:12;2.80;99.90
20973;DHT22;10645;52.370;13.314;2023-02-25T04:37:41;2.80;99.90
20973;DHT22;10645;52.370;13.314;2023-02-25T04:40:19;2.80;99.90
20973;DHT22;10645;52.370;13.314;2023-02-25T04:42:46;2.70;99.90
20973;DHT22;10645;52.370;13.314;2023-02-25T04:45:13;2.70;99.90
20973;DHT22;10645;52.370;13.314;2023-02-25T04:47:40;2.70;99.90
20973;DHT22;10645;52.370;13.314;2023-02-25T04:50:07;2.70;99.90
20973;DHT22;10645;52.370;13.314;2023-02-25T04:52:34;2.70;99.90
20973;DHT22;10645;52.370;13.314;2023-02-25T04:55:01;2.70;99.90
20973;DHT22;10645;52.370;13.314;2023-02-25T04:57:27;2.70;99.90
20973;DHT22;10645;52.370;13.314;2023-02-25T04:59:53;2.70;99.90
20973;DHT22;10645;52.370;13.314;2023-02-25T05:02:19;2.70;99.90
20973;DHT22;10645;52.370;13.314;2023-02-25T05:04:45;2.70;99.90
20973;DHT22;10645;52.370;13.314;2023-02-25T05:07:11;2.70;99.90
20973;DHT22;10645;52.370;13.314;2023-02-25T05:09:37;2.70;99.90
20973;DHT22;10645;52.370;13.314;2023-02-25T05:12:03;2.70;99.90
20973;DHT22;10645;52.370;13.314;2023-02-25T05:14:29;2.70;99.90
20973;DHT22;10645;52.370;13.314;2023-02-25T05:16:55;2.70;99.90
20973;DHT22;10645;52.370;13.314;2023-02-25T05:19:23;2.70;99.90
20973;DHT22;10645;52.370;13.314;2023-02-25T05:21:51;2.70;99.90
20973;DHT22;10645;52.370;13.314;2023-02-25T05:24:18;2.70;99.90
20973;DHT22;10645;52.370;13.314;2023-02-25T05:26:44;2.70;99.90
20973;DHT22;10645;52.370;13.314;2023-02-25T05:29:11;2.60;99.90
20973;DHT22;10645;52.370;13.314;2023-02-25T05:31:38;2.60;99.90
20973;DHT22;10645;52.370;13.314;2023-02-25T05:34:04;2.60;99.90
20973;DHT22;10645;52.370;13.314;2023-02-25T05:36:30;2.50;99.90
20973;DHT22;10645;52.370;13.314;2023-02-25T05:38:57;2.50;99.90
20973;DHT22;10645;52.370;13.314;2023-02-25T05:41:25;2.40;99.90
20973;DHT22;10645;52.370;13.314;2023-02-25T05:43:51;2.40;99.90
20973;DHT22;10645;52.370;13.314;2023-02-25T05:46:18;2.40;99.90
20973;DHT22;10645;52.370;13.314;2023-02-25T05:48:44;2.30;99.90
20973;DHT22;10645;52.370;13.314;2023-02-25T05:51:17;2.30;99.90
20973;DHT22;10645;52.370;13.314;2023-02-25T05:53:43;2.30;99.90
20973;DHT22;10645;52.370;13.314;2023-02-25T05:56:16;2.20;99.90
20973;DHT22;10645;52.370;13.314;2023-02-25T05:58:42;2.20;99.90
20973;DHT22;10645;52.370;13.314;2023-02-25T06:01:10;2.20;99.90
20973;DHT22;10645;52.370;13.314;2023-02-25T06:03:43;2.20;99.90
20973;DHT22;10645;52.370;13.314;2023-02-25T06:06:12;2.10;99.90
20973;DHT22;10645;52.370;13.314;2023-02-25T06:08:39;2.10;99.90
20973;DHT22;10645;52.370;13.314;2023-02-25T06:11:07;2.10;99.90
20973;DHT22;10645;52.370;13.314;2023-02-25T06:13:34;2.10;99.90
20973;DHT22;10645;52.370;13.314;2023-02-25T06:16:04;2.10;99.90
20973;DHT22;10645;52.370;13.314;2023-02-25T06:18:31;2.10;99.90
20973;DHT22;10645;52.370;13.314;2023-02-25T06:21:03;2.00;99.90
20973;DHT22;10645;52.370;13.314;2023-02-25T06:23:31;2.00;99.90
20973;DHT22;10645;52.370;13.314;2023-02-25T06:25:57;2.00;99.90
20973;DHT22;10645;52.370;13.314;2023-02-25T06:28:23;2.00;99.90
20973;DHT22;10645;52.370;13.314;2023-02-25T06:30:49;2.00;99.90
20973;DHT22;10645;52.370;13.314;2023-02-25T06:33:16;2.00;99.90
20973;DHT22;10645;52.370;13.314;2023-02-25T06:35:42;2.00;99.90
20973;DHT22;10645;52.370;13.314;2023-02-25T06:38:08;1.90;99.90
20973;DHT22;10645;52.370;13.314;2023-02-25T06:40:34;1.90;99.90
20973;DHT22;10645;52.370;13.314;2023-02-25T06:43:00;2.00;99.90
20973;DHT22;10645;52.370;13.314;2023-02-25T06:45:26;2.00;99.90
20973;DHT22;10645;52.370;13.314;2023-02-25T06:47:52;2.00;99.90
20973;DHT22;10645;52.370;13.314;2023-02-25T06:50:18;2.00;99.90
20973;DHT22;10645;52.370;13.314;2023-02-25T06:52:45;2.00;99.90
20973;DHT22;10645;52.370;13.314;2023-02-25T06:55:11;2.00;99.90
20973;DHT22;10645;52.370;13.314;2023-02-25T06:57:37;2.00;99.90
20973;DHT22;10645;52.370;13.314;2023-02-25T07:00:04;2.00;99.90
20973;DHT22;10645;52.370;13.314;2023-02-25T07:02:30;2.10;99.90
20973;DHT22;10645;52.370;13.314;2023-02-25T07:04:57;2.10;99.90
20973;DHT22;10645;52.370;13.314;2023-02-25T07:07:23;2.10;99.90
20973;DHT22;10645;52.370;13.314;2023-02-25T07:09:49;2.20;99.90
20973;DHT22;10645;52.370;13.314;2023-02-25T07:12:15;2.20;99.90
20973;DHT22;10645;52.370;13.314;2023-02-25T07:14:41;2.20;99.90
20973;DHT22;10645;52.370;13.314;2023-02-25T07:17:07;2.20;99.90
20973;DHT22;10645;52.370;13.314;2023-02-25T07:19:34;2.30;99.90
20973;DHT22;10645;52.370;13.314;2023-02-25T07:22:00;2.40;99.90
20973;DHT22;10645;52.370;13.314;2023-02-25T07:24:26;2.40;99.90
20973;DHT22;10645;52.370;13.314;2023-02-25T07:26:52;2.40;99.90
20973;DHT22;10645;52.370;13.314;2023-02-25T07:29:20;2.40;99.90
20973;DHT22;10645;52.370;13.314;2023-02-25T07:31:47;2.40;99.90
20973;DHT22;10645;52.370;13.314;2023-02-25T07:34:13;2.40;99.90
20973;DHT22;10645;52.370;13.314;2023-02-25T07:36:39;2.40;99.90
20973;DHT22;10645;52.370;13.314;2023-02-25T07:39:08;2.30;99.90
20973;DHT22;10645;52.370;13.314;2023-02-25T07:41:36;2.30;99.90
20973;DHT22;10645;52.370;13.314;2023-02-25T07:44:04;2.40;99.90
20973;DHT22;10645;52.370;13.314;2023-02-25T07:46:31;2.30;99.90
20973;DHT22;10645;52.370;13.314;2023-02-25T07:48:58;2.30;99.90
20973;DHT22;10645;52.370;13.314;2023-02-25T07:51:24;2.30;99.90
20973;DHT22;10645;52.370;13.314;2023-02-25T07:53:52;2.30;99.90
20973;DHT22;10645;52.370;13.314;2023-02-25T07:56:21;2.30;99.90
20973;DHT22;10645;52.370;13.314;2023-02-25T07:58:47;2.30;99.90
20973;DHT22;10645;52.370;13.314;2023-02-25T08:01:24;2.30;99.90
20973;DHT22;10645;52.370;13.314;2023-02-25T08:03:53;2.40;99.90
20973;DHT22;10645;52.370;13.314;2023-02-25T08:06:19;2.40;99.90
20973;DHT22;10645;52.370;13.314;2023-02-25T08:08:46;2.50;99.90
20973;DHT22;10645;52.370;13.314;2023-02-25T08:11:15;2.50;99.90
20973;DHT22;10645;52.370;13.314;2023-02-25T08:13:41;2.40;99.90
20973;DHT22;10645;52.370;13.314;2023-02-25T08:16:10;2.40;99.90
20973;DHT22;10645;52.370;13.314;2023-02-25T08:18:37;2.40;99.90
20973;DHT22;10645;52.370;13.314;2023-02-25T08:21:03;2.40;99.90
20973;DHT22;10645;52.370;13.314;2023-02-25T08:23:29;2.40;99.90
20973;DHT22;10645;52.370;13.314;2023-02-25T08:25:57;2.40;99.90
20973;DHT22;10645;52.370;13.314;2023-02-25T08:28:24;2.40;99.90
20973;DHT22;10645;52.370;13.314;2023-02-25T08:30:51;2.40;99.90
20973;DHT22;10645;52.370;13.314;2023-02-25T08:33:18;2.40;99.90
20973;DHT22;10645;52.370;13.314;2023-02-25T08:35:44;2.50;99.90
20973;DHT22;10645;52.370;13.314;2023-02-25T08:38:10;2.60;99.90
20973;DHT22;10645;52.370;13.314;2023-02-25T08:40:38;2.60;99.90
20973;DHT22;10645;52.370;13.314;2023-02-25T08:43:05;2.60;99.90
20973;DHT22;10645;52.370;13.314;2023-02-25T08:45:31;2.70;99.90
20973;DHT22;10645;52.370;13.314;2023-02-25T08:47:58;2.70;99.90
20973;DHT22;10645;52.370;13.314;2023-02-25T08:50:24;2.60;99.90
20973;DHT22;10645;52.370;13.314;2023-02-25T08:52:51;2.60;99.90
20973;DHT22;10645;52.370;13.314;2023-02-25T08:55:17;2.60;99.90
20973;DHT22;10645;52.370;13.314;2023-02-25T08:57:44;2.60;99.90
20973;DHT22;10645;52.370;13.314;2023-02-25T09:00:12;2.60;99.90
20973;DHT22;10645;52.370;13.314;2023-02-25T09:02:42;2.60;99.90
20973;DHT22;10645;52.370;13.314;2023-02-25T09:05:10;2.60;99.90
20973;DHT22;10645;52.370;13.314;2023-02-25T09:07:36;2.70;99.90
20973;DHT22;10645;52.370;13.314;2023-02-25T09:10:03;2.70;99.90
20973;DHT22;10645;52.370;13.314;2023-02-25T09:12:33;2.70;99.90
20973;DHT22;10645;52.370;13.314;2023-02-25T09:15:01;2.70;99.90
20973;DHT22;10645;52.370;13.314;2023-02-25T09:17:28;2.70;99.90
20973;DHT22;10645;52.370;13.314;2023-02-25T09:19:54;2.90;99.90
20973;DHT22;10645;52.370;13.314;2023-02-25T09:22:22;2.90;99.90
20973;DHT22;10645;52.370;13.314;2023-02-25T09:24:48;2.90;99.90
20973;DHT22;10645;52.370;13.314;2023-02-25T09:27:14;2.90;99.90
20973;DHT22;10645;52.370;13.314;2023-02-25T09:29:40;2.70;99.90
20973;DHT22;10645;52.370;13.314;2023-02-25T09:32:16;2.50;99.90
20973;DHT22;10645;52.370;13.314;2023-02-25T09:34:42;2.20;99.90
20973;DHT22;10645;52.370;13.314;2023-02-25T09:37:08;2.00;99.90
20973;DHT22;10645;52.370;13.314;2023-02-25T09:39:36;1.90;99.90
20973;DHT22;10645;52.370;13.314;2023-02-25T09:42:13;1.90;99.90
20973;DHT22;10645;52.370;13.314;2023-02-25T09:44:43;2.00;99.90
20973;DHT22;10645;52.370;13.314;2023-02-25T09:47:20;2.10;99.90
20973;DHT22;10645;52.370;13.314;2023-02-25T09:50:04;2.20;99.90
20973;DHT22;10645;52.370;13.314;2023-02-25T09:52:43;2.40;99.90
20973;DHT22;10645;52.370;13.314;2023-02-25T09:55:28;2.60;99.90
20973;DHT22;10645;52.370;13.314;2023-02-25T09:58:05;2.80;99.90
20973;DHT22;10645;52.370;13.314;2023-02-25T10:00:44;3.10;99.90
20973;DHT22;10645;52.370;13.314;2023-02-25T10:11:51;2.70;99.90
20973;DHT22;10645;52.370;13.314;2023-02-25T10:14:54;2.60;99.90
20973;DHT22;10645;52.370;13.314;2023-02-25T10:25:34;2.80;99.90
20973;DHT22;10645;52.370;13.314;2023-02-25T10:28:05;2.90;99.90
20973;DHT22;10645;52.370;13.314;2023-02-25T10:30:57;3.00;99.90
20973;DHT22;10645;52.370;13.314;2023-02-25T10:33:26;3.00;99.90
20973;DHT22;10645;52.370;13.314;2023-02-25T10:36:02;2.60;99.90
20973;DHT22;10645;52.370;13.314;2023-02-25T10:38:46;2.50;99.90
20973;DHT22;10645;52.370;13.314;2023-02-25T10:41:14;2.50;99.90
20973;DHT22;10645;52.370;13.314;2023-02-25T10:43:40;2.50;99.90
20973;DHT22;10645;52.370;13.314;2023-02-25T10:46:20;2.60;99.90
20973;DHT22;10645;52.370;13.314;2023-02-25T10:48:55;2.70;99.90
20973;DHT22;10645;52.370;13.314;2023-02-25T10:51:22;2.80;99.90
20973;DHT22;10645;52.370;13.314;2023-02-25T10:56:41;3.20;99.90
20973;DHT22;10645;52.370;13.314;2023-02-25T10:59:30;3.30;99.90
20973;DHT22;10645;52.370;13.314;2023-02-25T11:01:57;3.30;99.90
20973;DHT22;10645;52.370;13.314;2023-02-25T11:04:32;3.50;99.90
20973;DHT22;10645;52.370;13.314;2023-02-25T11:06:59;3.50;99.90
20973;DHT22;10645;52.370;13.314;2023-02-25T11:09:26;3.50;99.90
20973;DHT22;10645;52.370;13.314;2023-02-25T11:14:36;3.30;99.90
20973;DHT22;10645;52.370;13.314;2023-02-25T11:17:15;3.30;99.90
20973;DHT22;10645;52.370;13.314;2023-02-25T11:19:47;3.40;99.90
20973;DHT22;10645;52.370;13.314;2023-02-25T11:24:43;3.50;99.90
20973;DHT22;10645;52.370;13.314;2023-02-25T11:27:37;3.70;99.90
20973;DHT22;10645;52.370;13.314;2023-02-25T11:30:16;3.60;99.90
20973;DHT22;10645;52.370;13.314;2023-02-25T11:32:54;3.60;99.90
20973;DHT22;10645;52.370;13.314;2023-02-25T11:35:33;3.50;99.90
20973;DHT22;10645;52.370;13.314;2023-02-25T11:38:29;3.30;99.90
20973;DHT22;10645;52.370;13.314;2023-02-25T11:40:57;3.20;99.90
20973;DHT22;10645;52.370;13.314;2023-02-25T11:43:25;3.10;99.90
20973;DHT22;10645;52.370;13.314;2023-02-25T11:46:04;3.10;99.90
20973;DHT22;10645;52.370;13.314;2023-02-25T11:49:01;3.10;99.90
20973;DHT22;10645;52.370;13.314;2023-02-25T11:51:42;3.30;99.90
20973;DHT22;10645;52.370;13.314;2023-02-25T11:54:57;3.40;99.90
20973;DHT22;10645;52.370;13.314;2023-02-25T12:00:26;3.10;99.90
20973;DHT22;10645;52.370;13.314;2023-02-25T12:03:14;2.80;99.90
20973;DHT22;10645;52.370;13.314;2023-02-25T12:23:13;2.10;99.90
20973;DHT22;10645;52.370;13.314;2023-02-25T12:25:59;2.00;99.90
20973;DHT22;10645;52.370;13.314;2023-02-25T12:34:23;2.70;99.90
20973;DHT22;10645;52.370;13.314;2023-02-25T12:42:10;3.00;99.90
20973;DHT22;10645;52.370;13.314;2023-02-25T12:44:43;2.80;99.90
20973;DHT22;10645;52.370;13.314;2023-02-25T12:47:39;2.80;99.90
20973;DHT22;10645;52.370;13.314;2023-02-25T12:55:53;2.40;99.90
20973;DHT22;10645;52.370;13.314;2023-02-25T13:01:25;2.10;99.90
20973;DHT22;10645;52.370;13.314;2023-02-25T13:07:29;2.10;99.90
20973;DHT22;10645;52.370;13.314;2023-02-25T13:10:30;2.10;99.90
20973;DHT22;10645;52.370;13.314;2023-02-25T13:13:29;2.10;99.90
20973;DHT22;10645;52.370;13.314;2023-02-25T13:16:26;2.10;99.90
20973;DHT22;10645;52.370;13.314;2023-02-25T13:19:03;2.10;99.90
20973;DHT22;10645;52.370;13.314;2023-02-25T13:22:02;2.20;99.90
20973;DHT22;10645;52.370;13.314;2023-02-25T13:27:19;2.10;99.90
20973;DHT22;10645;52.370;13.314;2023-02-25T13:36:06;2.10;99.90
20973;DHT22;10645;52.370;13.314;2023-02-25T13:50:44;2.10;99.90
20973;DHT22;10645;52.370;13.314;2023-02-25T13:56:37;2.20;99.90
20973;DHT22;10645;52.370;13.314;2023-02-25T14:02:02;2.20;99.90
20973;DHT22;10645;52.370;13.314;2023-02-25T14:13:18;2.40;99.90
20973;DHT22;10645;52.370;13.314;2023-02-25T14:25:31;1.90;99.90
20973;DHT22;10645;52.370;13.314;2023-02-25T14:31:50;1.60;99.90
20973;DHT22;10645;52.370;13.314;2023-02-25T14:34:28;1.70;99.90
20973;DHT22;10645;52.370;13.314;2023-02-25T14:37:17;1.80;99.90
20973;DHT22;10645;52.370;13.314;2023-02-25T14:42:40;1.90;99.90
20973;DHT22;10645;52.370;13.314;2023-02-25T14:48:09;1.90;99.90
20973;DHT22;10645;52.370;13.314;2023-02-25T14:50:45;2.00;99.90
20973;DHT22;10645;52.370;13.314;2023-02-25T14:56:33;2.10;99.90
20973;DHT22;10645;52.370;13.314;2023-02-25T14:59:43;2.20;99.90
20973;DHT22;10645;52.370;13.314;2023-02-25T15:02:36;2.20;99.90
20973;DHT22;10645;52.370;13.314;2023-02-25T15:05:23;2.20;99.90
20973;DHT22;10645;52.370;13.314;2023-02-25T15:11:11;2.20;99.90
20973;DHT22;10645;52.370;13.314;2023-02-25T15:13:53;2.30;99.90
20973;DHT22;10645;52.370;13.314;2023-02-25T15:24:44;2.20;99.90
20973;DHT22;10645;52.370;13.314;2023-02-25T15:30:05;2.10;99.90
20973;DHT22;10645;52.370;13.314;2023-02-25T15:35:22;2.10;99.90
20973;DHT22;10645;52.370;13.314;2023-02-25T15:43:00;2.00;99.90
20973;DHT22;10645;52.370;13.314;2023-02-25T15:53:10;2.00;99.90
20973;DHT22;10645;52.370;13.314;2023-02-25T16:00:58;1.80;99.90
20973;DHT22;10645;52.370;13.314;2023-02-25T16:06:25;1.70;99.90
20973;DHT22;10645;52.370;13.314;2023-02-25T16:09:04;1.60;99.90
20973;DHT22;10645;52.370;13.314;2023-02-25T16:11:33;1.60;99.90
20973;DHT22;10645;52.370;13.314;2023-02-25T16:14:02;1.50;99.90
20973;DHT22;10645;52.370;13.314;2023-02-25T16:16:30;1.40;99.90
20973;DHT22;10645;52.370;13.314;2023-02-25T16:18:59;1.30;99.90
20973;DHT22;10645;52.370;13.314;2023-02-25T16:21:36;1.20;99.90
20973;DHT22;10645;52.370;13.314;2023-02-25T16:24:08;1.00;99.90
20973;DHT22;10645;52.370;13.314;2023-02-25T16:26:57;1.00;99.90
20973;DHT22;10645;52.370;13.314;2023-02-25T16:29:44;0.80;99.90
20973;DHT22;10645;52.370;13.314;2023-02-25T16:32:25;0.70;99.90
20973;DHT22;10645;52.370;13.314;2023-02-25T16:35:08;0.70;99.90
20973;DHT22;10645;52.370;13.314;2023-02-25T16:40:35;0.60;99.90
20973;DHT22;10645;52.370;13.314;2023-02-25T16:43:02;0.60;99.90
20973;DHT22;10645;52.370;13.314;2023-02-25T16:45:32;0.60;99.90
20973;DHT22;10645;52.370;13.314;2023-02-25T16:48:14;0.60;99.90
20973;DHT22;10645;52.370;13.314;2023-02-25T16:50:45;0.60;99.90
20973;DHT22;10645;52.370;13.314;2023-02-25T16:53:17;0.60;99.90
20973;DHT22;10645;52.370;13.314;2023-02-25T16:55:44;0.50;99.90
20973;DHT22;10645;52.370;13.314;2023-02-25T17:01:00;0.50;99.90
20973;DHT22;10645;52.370;13.314;2023-02-25T17:03:30;0.50;99.90
20973;DHT22;10645;52.370;13.314;2023-02-25T17:06:13;0.50;99.90
20973;DHT22;10645;52.370;13.314;2023-02-25T17:08:45;0.60;99.90
20973;DHT22;10645;52.370;13.314;2023-02-25T17:11:16;0.60;99.90
20973;DHT22;10645;52.370;13.314;2023-02-25T17:13:43;0.60;99.90
20973;DHT22;10645;52.370;13.314;2023-02-25T17:16:39;0.60;99.90
20973;DHT22;10645;52.370;13.314;2023-02-25T17:19:07;0.60;99.90
20973;DHT22;10645;52.370;13.314;2023-02-25T17:21:36;0.60;99.90
20973;DHT22;10645;52.370;13.314;2023-02-25T17:24:06;0.60;99.90
20973;DHT22;10645;52.370;13.314;2023-02-25T17:26:34;0.70;99.90
20973;DHT22;10645;52.370;13.314;2023-02-25T17:29:09;0.70;99.90
20973;DHT22;10645;52.370;13.314;2023-02-25T17:31:45;0.60;99.90
20973;DHT22;10645;52.370;13.314;2023-02-25T17:34:29;0.60;99.90
20973;DHT22;10645;52.370;13.314;2023-02-25T17:36:58;0.60;99.90
20973;DHT22;10645;52.370;13.314;2023-02-25T17:39:26;0.60;99.90
20973;DHT22;10645;52.370;13.314;2023-02-25T17:41:55;0.60;99.90
20973;DHT22;10645;52.370;13.314;2023-02-25T17:47:07;0.60;99.90
20973;DHT22;10645;52.370;13.314;2023-02-25T17:49:35;0.60;99.90
20973;DHT22;10645;52.370;13.314;2023-02-25T17:52:05;0.60;99.90
20973;DHT22;10645;52.370;13.314;2023-02-25T17:54:35;0.60;99.90
20973;DHT22;10645;52.370;13.314;2023-02-25T17:57:07;0.60;99.90
20973;DHT22;10645;52.370;13.314;2023-02-25T17:59:35;0.60;99.90
20973;DHT22;10645;52.370;13.314;2023-02-25T18:02:27;0.60;99.90
20973;DHT22;10645;52.370;13.314;2023-02-25T18:05:14;0.60;99.90
20973;DHT22;10645;52.370;13.314;2023-02-25T18:07:44;0.60;99.90
20973;DHT22;10645;52.370;13.314;2023-02-25T18:12:59;0.60;99.90
20973;DHT22;10645;52.370;13.314;2023-02-25T18:15:32;0.60;99.90
20973;DHT22;10645;52.370;13.314;2023-02-25T18:18:03;0.60;99.90
20973;DHT22;10645;52.370;13.314;2023-02-25T18:20:33;0.60;99.90
20973;DHT22;10645;52.370;13.314;2023-02-25T18:23:05;0.50;99.90
20973;DHT22;10645;52.370;13.314;2023-02-25T18:25:35;0.50;99.90
20973;DHT22;10645;52.370;13.314;2023-02-25T18:28:03;0.50;99.90
20973;DHT22;10645;52.370;13.314;2023-02-25T18:30:30;0.60;99.90
20973;DHT22;10645;52.370;13.314;2023-02-25T18:32:58;0.50;99.90
20973;DHT22;10645;52.370;13.314;2023-02-25T18:35:29;0.50;99.90
20973;DHT22;10645;52.370;13.314;2023-02-25T18:37:56;0.50;99.90
20973;DHT22;10645;52.370;13.314;2023-02-25T18:40:29;0.50;99.90
20973;DHT22;10645;52.370;13.314;2023-02-25T18:42:56;0.50;99.90
20973;DHT22;10645;52.370;13.314;2023-02-25T18:45:24;0.50;99.90
20973;DHT22;10645;52.370;13.314;2023-02-25T18:47:50;0.50;99.90
20973;DHT22;10645;52.370;13.314;2023-02-25T18:50:18;0.50;99.90
20973;DHT22;10645;52.370;13.314;2023-02-25T18:52:44;0.50;99.90
20973;DHT22;10645;52.370;13.314;2023-02-25T18:55:20;0.50;99.90
20973;DHT22;10645;52.370;13.314;2023-02-25T18:57:46;0.40;99.90
20973;DHT22;10645;52.370;13.314;2023-02-25T19:00:14;0.40;99.90
20973;DHT22;10645;52.370;13.314;2023-02-25T19:02:49;0.40;99.90
20973;DHT22;10645;52.370;13.314;2023-02-25T19:05:17;0.40;99.90
20973;DHT22;10645;52.370;13.314;2023-02-25T19:07:43;0.40;99.90
20973;DHT22;10645;52.370;13.314;2023-02-25T19:10:17;0.40;99.90
20973;DHT22;10645;52.370;13.314;2023-02-25T19:12:44;0.40;99.90